• Join FlightAware (Why Join?)
  • Login
  • US Flag 
11:48PM EDT


 

Airport Tracker/Info


-or-


 

Live Flight TrackerFlight Track Log ✈ SKW5579 ✈ 13-May-2013 ✈ KSFO - KSBA

Flight Track Log - Related Links

Times and Time Zones

All times are in EDT time to prevent confusion due to time zone crossing. See the SKW5579 flight status page for this flight to view local times or setup timezone preferences in your user account.

Time Position Orientation Groundspeed Altitude Reporting Facility
EDT Latitude Longitude Course Direction KTS MPH feet Rate Location/Type
10:46AM 37.6333 -122.3667 208° Southwest 142 163 1,200  Level Northern Cal TRACON
10:47AM 37.6833 -122.3833 345° North 167 192 2,600 1,440 Climbing Northern Cal TRACON
10:48AM 37.6333 -122.4167 208° Southwest 195 224 4,100 1,620 Climbing Northern Cal TRACON
10:49AM 37.5833 -122.4333 195° South 187 215 5,900 1,560 Climbing Northern Cal TRACON
10:50AM 37.5742 -122.4283 157° South 188 216 6,300 1,260 Climbing Oakland Center
10:51AM 37.3789 -122.5022 202° Southwest  Level FlightAware Approximate
10:51AM 37.5233 -122.4294 181° South 183 211 7,700  Level Oakland Center
10:52AM 37.3175 -122.5383 208° Southwest  Level FlightAware Approximate
10:52AM 37.4703 -122.4314 182° South 189 217 9,100  Level Oakland Center
10:53AM 37.4189 -122.4325 181° South 185 213 10,700 1,440 Climbing Oakland Center
10:54AM 37.3586 -122.4333 181° South 180 207 12,100 1,080 Climbing Oakland Center
10:55AM 37.3064 -122.4364 183° South 187 215 13,000 780 Climbing Oakland Center
10:56AM 37.2472 -122.4389 182° South 208 239 13,800 840 Climbing Oakland Center
10:57AM 37.1858 -122.4411 182° South 218 251 14,800 960 Climbing Oakland Center
10:58AM 37.1256 -122.4447 183° South 219 252 15,800 1,020 Climbing Oakland Center
10:59AM 37.0697 -122.4203 161° South 222 255 16,900 900 Climbing Oakland Center
11:00AM 37.0203 -122.3767 145° Southeast 221 254 17,700 780 Climbing Oakland Center
11:01AM 36.9706 -122.3331 145° Southeast 218 251 18,600 780 Climbing Oakland Center
11:02AM 36.9206 -122.2906 146° Southeast 218 251 19,400 720 Climbing Oakland Center
11:03AM 36.8706 -122.2447 144° Southeast 221 254 20,100 720 Climbing Oakland Center
11:04AM 36.8192 -122.2008 146° Southeast 224 258 20,900 840 Climbing Oakland Center
11:05AM 36.7603 -122.1478 144° Southeast 219 252 21,900 720 Climbing Oakland Center
11:06AM 36.7108 -122.1031 144° Southeast 220 253 22,400 480 Climbing Oakland Center
11:07AM 36.6586 -122.0592 146° Southeast 224 258 22,900 240 Climbing Oakland Center
11:08AM 36.6039 -122.0117 145° Southeast 235 270 23,000  Climbing Oakland Center
11:09AM 36.5481 -121.9578 142° Southeast 250 288 23,000  Level Oakland Center
11:10AM 36.4931 -121.9039 142° Southeast 252 290 23,000  Level Oakland Center
11:11AM 36.4383 -121.8508 142° Southeast 251 289 23,000  Level Oakland Center
11:12AM 36.3764 -121.7917 142° Southeast 252 290 23,000  Level Oakland Center
11:13AM 36.3217 -121.7403 143° Southeast 249 287 23,000  Level Oakland Center
11:14AM 36.2667 -121.6892 143° Southeast 247 284 23,000  Level Oakland Center
11:15AM 36.2119 -121.6381 143° Southeast 246 283 23,000  Level Oakland Center
11:16AM 36.1581 -121.5853 142° Southeast 248 285 23,000  Level Oakland Center
11:17AM 36.1042 -121.5347 143° Southeast 245 282 23,000  Level Oakland Center
11:18AM 36.0494 -121.4847 144° Southeast 245 282 23,000  Level Oakland Center
11:19AM 35.9953 -121.4339 143° Southeast 245 282 23,000  Level Oakland Center
11:20AM 35.9308 -121.3711 142° Southeast 246 283 23,000  Level Oakland Center
11:21AM 35.8761 -121.3211 143° Southeast 246 283 23,000  Level Oakland Center
11:22AM 35.8214 -121.2683 142° Southeast 248 285 23,000  Level Oakland Center
11:23AM 35.7664 -121.2175 143° Southeast 248 285 23,000  Level Oakland Center
11:24AM 35.7114 -121.1683 144° Southeast 246 283 23,000  Level Oakland Center
11:25AM 35.6575 -121.1167 142° Southeast 246 283 23,000  Level Oakland Center
11:27AM 35.6028 -121.0672 144° Southeast 246 283 23,000  Level Oakland Center
11:28AM 35.5506 -121.0186 143° Southeast 240 276 23,000  Level Oakland Center
11:29AM 35.4886 -120.9617 143° Southeast 235 270 23,000  Level Oakland Center
11:30AM 35.4383 -120.9150 143° Southeast 229 264 23,000  Level Oakland Center
11:31AM 35.3861 -120.8683 144° Southeast 232 267 23,000  Level Oakland Center
11:32AM 35.3361 -120.8211 142° Southeast 230 265 23,000  Level Oakland Center
11:32AM 35.3247 -120.8117 146° Southeast 229 264 23,000  Level Los Angeles Center
11:33AM 35.2639 -120.7558 143° Southeast 228 262 23,000  Level Los Angeles Center
11:34AM 35.2128 -120.7089 143° Southeast 229 264 23,000  Level Los Angeles Center
11:35AM 35.1614 -120.6619 143° Southeast 230 265 23,000  Level Los Angeles Center
11:36AM 35.1108 -120.6153 143° Southeast 229 264 23,000  Level Los Angeles Center
11:37AM 35.0586 -120.5686 144° Southeast 231 266 23,000 -360 Level Los Angeles Center
11:38AM 35.0069 -120.5208 143° Southeast 232 267 22,300 -1,200 Descending Los Angeles Center
11:39AM 34.9456 -120.4656 144° Southeast 263 303 20,600 -1,860 Descending Los Angeles Center
11:40AM 34.8742 -120.4019 144° Southeast 263 303 18,500 -1,980 Descending Los Angeles Center
11:41AM 34.8194 -120.3511 143° Southeast 248 285 16,600 -1,920 Descending Los Angeles Center
11:42AM 34.7972 -120.3325 145° Southeast 244 281 15,900 -1,800 Descending Los Angeles Center
11:42AM 34.7661 -120.3028 142° Southeast 240 276 14,800 -1,800 Descending Los Angeles Center
11:43AM 34.7003 -120.2433 143° Southeast 235 270 12,700 -1,920 Descending Los Angeles Center
11:44AM 34.6597 -120.2067 143° Southeast 229 264 11,200 -1,800 Descending Los Angeles Center
11:45AM 34.6075 -120.1553 141° Southeast 228 262 9,300 -1,860 Descending Los Angeles Center
11:46AM 34.5497 -120.1086 146° Southeast 234 269 7,300 -1,920 Descending Los Angeles Center
11:47AM 34.4917 -120.0700 151° Southeast 237 273 5,500 -1,560 Descending Los Angeles Center
11:48AM 34.4314 -120.0319 152° Southeast 233 268 4,000 -840 Descending Los Angeles Center
11:49AM 34.3814 -119.9906 146° Southeast 226 260 3,900 -60 Descending Los Angeles Center
11:51AM 34.3567 -119.9178 112° Southeast 214 246 3,900 -300 Level Los Angeles Center
11:52AM 34.3425 -119.8547 105° East 205 236 3,300 -960 Descending Los Angeles Center
11:53AM 34.3386 -119.7881 94° East 197 227 2,000 -900 Descending Los Angeles Center
11:53AM 34.3792 -119.7856 North 170 196 1,600 -480 Descending Los Angeles Center